Time;durP1;ratioP1;P1;durP2;ratioP2;P2;SDS_P1;SDS_P2;PMS_P1;PMS_P2;Temp;Humidity;BMP_temperature;BMP_pressure;BME280_temperature;BME280_humidity;BME280_pressure;Samples;Min_cycle;Max_cycle;Signal;HPM_P1;HPM_P2
2022/07/28 00:00:09;;;;;;;4.32;1.40;;;;;;;;;;5121423;28;20210;-72
2022/07/28 00:02:34;;;;;;;3.08;1.23;;;;;;;;;;5121466;28;20129;-72
2022/07/28 00:04:59;;;;;;;3.35;1.40;;;;;;;;;;5115268;28;20028;-72
2022/07/28 00:07:25;;;;;;;2.85;1.17;;;;;;;;;;5120514;28;20072;-72
2022/07/28 00:09:50;;;;;;;3.72;1.33;;;;;;;;;;5120955;28;20038;-72
2022/07/28 00:12:16;;;;;;;3.67;1.40;;;;;;;;;;5120985;28;20027;-72
2022/07/28 00:14:42;;;;;;;3.42;1.23;;;;;;;;;;5120985;28;20015;-72
2022/07/28 00:17:07;;;;;;;2.72;1.20;;;;;;;;;;5121095;28;20208;-72
2022/07/28 00:19:33;;;;;;;4.25;1.20;;;;;;;;;;5114418;28;20031;-72
2022/07/28 00:21:58;;;;;;;3.58;1.20;;;;;;;;;;5121391;28;20034;-72
2022/07/28 00:24:24;;;;;;;4.18;1.20;;;;;;;;;;5120914;28;20034;-72
2022/07/28 00:26:50;;;;;;;3.97;1.30;;;;;;;;;;5120681;28;20028;-72
2022/07/28 00:29:15;;;;;;;3.78;1.10;;;;;;;;;;5114631;28;20015;-72
2022/07/28 00:31:41;;;;;;;5.63;1.30;;;;;;;;;;5121542;28;20026;-72
2022/07/28 00:34:06;;;;;;;4.55;1.20;;;;;;;;;;5120578;28;20075;-72
2022/07/28 00:36:31;;;;;;;5.53;1.40;;;;;;;;;;5121221;28;20077;-72
2022/07/28 00:38:57;;;;;;;3.58;1.20;;;;;;;;;;5120984;28;20020;-72
2022/07/28 00:41:22;;;;;;;2.55;1.20;;;;;;;;;;5121124;28;20072;-72
2022/07/28 00:43:50;;;;;;;7.85;1.42;;;;;;;;;;5120950;28;20020;-72
2022/07/28 00:46:18;;;;;;;3.28;1.50;;;;;;;;;;5115912;28;20255;-72
2022/07/28 00:48:46;;;;;;;2.83;1.20;;;;;;;;;;5120560;28;20392;-72
2022/07/28 00:51:14;;;;;;;3.78;1.40;;;;;;;;;;5115457;28;20035;-72
2022/07/28 00:53:39;;;;;;;3.42;1.20;;;;;;;;;;5114075;28;20043;-72
2022/07/28 00:56:05;;;;;;;2.20;1.23;;;;;;;;;;5114061;28;20030;-72
2022/07/28 00:58:31;;;;;;;4.38;1.23;;;;;;;;;;5120066;28;20028;-72
2022/07/28 01:00:57;;;;;;;4.80;1.80;;;;;;;;;;5120908;28;20042;-72
2022/07/28 01:03:23;;;;;;;4.10;1.70;;;;;;;;;;5117915;28;20350;-72
2022/07/28 01:05:59;;;;;;;5.35;1.33;;;;;;;;;;5114109;28;20027;-72
2022/07/28 01:08:58;;;;;;;2.83;1.20;;;;;;;;;;5110621;28;20229;-72
2022/07/28 01:11:33;;;;;;;7.63;1.40;;;;;;;;;;5118420;28;20043;-72
2022/07/28 01:14:09;;;;;;;2.50;1.10;;;;;;;;;;5123527;28;20078;-72
2022/07/28 01:16:48;;;;;;;4.88;1.27;;;;;;;;;;5124642;28;20020;-72
2022/07/28 01:19:45;;;;;;;3.50;1.20;;;;;;;;;;5116920;28;20023;-72
2022/07/28 01:22:16;;;;;;;4.75;1.20;;;;;;;;;;5116359;28;20188;-72
2022/07/28 01:24:58;;;;;;;6.25;1.42;;;;;;;;;;5124061;28;20310;-72
2022/07/28 01:27:32;;;;;;;2.95;1.20;;;;;;;;;;5106095;28;20035;-72
2022/07/28 01:30:45;;;;;;;3.43;1.13;;;;;;;;;;5124230;28;20027;-72
2022/07/28 01:33:18;;;;;;;2.97;1.23;;;;;;;;;;5119434;28;20031;-72
2022/07/28 01:35:50;;;;;;;2.67;1.20;;;;;;;;;;5124113;28;20023;-74
2022/07/28 01:38:17;;;;;;;2.78;1.20;;;;;;;;;;5123823;28;20068;-72
2022/07/28 01:40:44;;;;;;;2.85;1.17;;;;;;;;;;5123911;28;20028;-72
2022/07/28 01:43:15;;;;;;;2.95;1.25;;;;;;;;;;5124046;28;20019;-72
2022/07/28 01:45:43;;;;;;;3.75;1.25;;;;;;;;;;5113195;28;20028;-72
2022/07/28 01:48:10;;;;;;;4.50;1.17;;;;;;;;;;5124412;28;20084;-72
2022/07/28 01:50:37;;;;;;;3.78;1.20;;;;;;;;;;5123696;28;20031;-72
2022/07/28 01:53:03;;;;;;;2.72;1.20;;;;;;;;;;5123539;28;20080;-72
2022/07/28 01:55:30;;;;;;;3.50;1.20;;;;;;;;;;5123694;28;20028;-72
2022/07/28 01:57:56;;;;;;;2.50;1.20;;;;;;;;;;5123890;28;20231;-72
2022/07/28 02:00:23;;;;;;;5.68;1.20;;;;;;;;;;5123890;28;20142;-72
2022/07/28 02:02:51;;;;;;;3.38;1.27;;;;;;;;;;5123894;28;20032;-72
2022/07/28 02:05:19;;;;;;;3.70;1.27;;;;;;;;;;5116904;28;20174;-72
2022/07/28 02:07:46;;;;;;;1.98;1.10;;;;;;;;;;5123760;28;20216;-73
2022/07/28 02:10:15;;;;;;;2.97;1.20;;;;;;;;;;5123065;28;20300;-72
2022/07/28 02:12:42;;;;;;;2.30;1.15;;;;;;;;;;5116746;28;20028;-72
2022/07/28 02:15:10;;;;;;;6.72;1.40;;;;;;;;;;5123409;28;20088;-72
2022/07/28 02:17:37;;;;;;;2.67;1.20;;;;;;;;;;5123654;28;20019;-72
2022/07/28 02:20:04;;;;;;;1.70;1.10;;;;;;;;;;5122270;28;20018;-72
2022/07/28 02:22:31;;;;;;;3.08;1.20;;;;;;;;;;5123558;28;20072;-72
2022/07/28 02:24:56;;;;;;;3.10;1.23;;;;;;;;;;5122490;28;20028;-72
2022/07/28 02:27:33;;;;;;;3.33;1.20;;;;;;;;;;5123433;28;20133;-72
2022/07/28 02:30:14;;;;;;;4.60;1.30;;;;;;;;;;5120141;28;20055;-73
2022/07/28 02:32:57;;;;;;;5.57;1.30;;;;;;;;;;5122648;28;20027;-73
2022/07/28 02:35:31;;;;;;;3.42;1.30;;;;;;;;;;5122975;28;20019;-72
2022/07/28 02:38:00;;;;;;;3.25;1.23;;;;;;;;;;5123170;28;20027;-72
2022/07/28 02:40:33;;;;;;;3.25;1.20;;;;;;;;;;5122696;28;20355;-73
2022/07/28 02:43:00;;;;;;;3.20;1.27;;;;;;;;;;5115031;28;20073;-73
2022/07/28 02:45:28;;;;;;;4.60;1.23;;;;;;;;;;5121071;28;20030;-72
2022/07/28 02:47:59;;;;;;;2.90;1.25;;;;;;;;;;5119903;28;20023;-72
2022/07/28 02:50:27;;;;;;;4.25;1.40;;;;;;;;;;5122343;28;20046;-72
2022/07/28 02:52:57;;;;;;;8.18;1.50;;;;;;;;;;5122701;28;20327;-72
2022/07/28 02:55:23;;;;;;;9.05;1.40;;;;;;;;;;5122076;28;20046;-72
2022/07/28 02:57:49;;;;;;;5.88;1.52;;;;;;;;;;5122675;28;20027;-72
2022/07/28 03:00:15;;;;;;;6.55;1.77;;;;;;;;;;5122642;28;20023;-72
2022/07/28 03:02:45;;;;;;;5.97;1.42;;;;;;;;;;5115641;28;20421;-74
2022/07/28 03:05:15;;;;;;;4.53;1.20;;;;;;;;;;5090610;28;20258;-74
2022/07/28 03:07:41;;;;;;;3.88;1.40;;;;;;;;;;5117787;28;20019;-73
2022/07/28 03:10:08;;;;;;;4.80;1.38;;;;;;;;;;5121918;28;20027;-73
2022/07/28 03:12:33;;;;;;;3.65;1.38;;;;;;;;;;5109367;28;20020;-74
2022/07/28 03:14:59;;;;;;;2.00;1.20;;;;;;;;;;5122643;28;20023;-74
2022/07/28 03:17:24;;;;;;;8.65;1.20;;;;;;;;;;5121965;28;20023;-73
2022/07/28 03:19:49;;;;;;;3.92;1.15;;;;;;;;;;5122018;28;20042;-74
2022/07/28 03:22:15;;;;;;;2.33;1.20;;;;;;;;;;5122148;28;20031;-73
2022/07/28 03:24:47;;;;;;;5.97;1.20;;;;;;;;;;5121304;28;20031;-74
2022/07/28 03:27:26;;;;;;;4.97;1.30;;;;;;;;;;5104034;28;20212;-73
2022/07/28 03:29:59;;;;;;;7.25;1.30;;;;;;;;;;5118207;28;20088;-73
2022/07/28 03:32:27;;;;;;;2.55;1.27;;;;;;;;;;5121833;28;20058;-73
2022/07/28 03:34:52;;;;;;;3.15;1.30;;;;;;;;;;5121795;28;20061;-74
2022/07/28 03:37:26;;;;;;;2.30;1.13;;;;;;;;;;5115317;28;20020;-73
2022/07/28 03:39:55;;;;;;;6.65;1.40;;;;;;;;;;5121498;28;20031;-73
2022/07/28 03:42:21;;;;;;;1.83;1.10;;;;;;;;;;5122026;28;20291;-73
2022/07/28 03:44:49;;;;;;;2.75;1.30;;;;;;;;;;5121551;28;20219;-73
2022/07/28 03:47:19;;;;;;;3.72;1.30;;;;;;;;;;5121207;28;20019;-73
2022/07/28 03:49:44;;;;;;;4.40;1.30;;;;;;;;;;5121713;28;20023;-73
2022/07/28 03:52:10;;;;;;;4.20;1.40;;;;;;;;;;5121703;28;20266;-73
2022/07/28 03:54:35;;;;;;;2.70;1.30;;;;;;;;;;5121024;28;20300;-73
2022/07/28 03:57:00;;;;;;;5.43;1.25;;;;;;;;;;5121501;28;20012;-73
2022/07/28 03:59:26;;;;;;;5.40;1.40;;;;;;;;;;5121393;28;20022;-73
2022/07/28 04:01:53;;;;;;;4.57;1.50;;;;;;;;;;5121560;28;20049;-73
2022/07/28 04:04:19;;;;;;;3.80;1.40;;;;;;;;;;5121344;28;20339;-73
2022/07/28 04:06:44;;;;;;;3.25;1.40;;;;;;;;;;5114859;28;20019;-73
2022/07/28 04:09:09;;;;;;;4.38;1.30;;;;;;;;;;5120910;28;20027;-73
2022/07/28 04:11:35;;;;;;;2.92;1.30;;;;;;;;;;5121350;28;20103;-73
2022/07/28 04:14:00;;;;;;;5.57;1.83;;;;;;;;;;5121538;28;20023;-73
2022/07/28 04:16:25;;;;;;;3.60;1.40;;;;;;;;;;5120125;28;20008;-73
2022/07/28 04:18:51;;;;;;;4.15;1.38;;;;;;;;;;5114737;28;20075;-73
2022/07/28 04:21:16;;;;;;;3.53;1.40;;;;;;;;;;5121061;28;20357;-74
2022/07/28 04:23:41;;;;;;;6.35;1.55;;;;;;;;;;5120434;28;20019;-73
2022/07/28 04:26:07;;;;;;;3.47;1.70;;;;;;;;;;5121429;28;20020;-73
2022/07/28 04:28:33;;;;;;;3.20;1.40;;;;;;;;;;5114769;28;20257;-73
2022/07/28 04:30:58;;;;;;;2.92;1.30;;;;;;;;;;5120670;28;20035;-73
2022/07/28 04:33:24;;;;;;;6.28;1.33;;;;;;;;;;5115534;28;20020;-73
2022/07/28 04:35:51;;;;;;;3.25;1.30;;;;;;;;;;5121152;28;20305;-73
2022/07/28 04:38:18;;;;;;;3.83;1.30;;;;;;;;;;5091894;28;20209;-73
2022/07/28 04:40:47;;;;;;;4.75;1.40;;;;;;;;;;5121192;28;20027;-73
2022/07/28 04:43:13;;;;;;;5.20;1.40;;;;;;;;;;5123265;28;20232;-73
2022/07/28 04:45:38;;;;;;;7.43;1.50;;;;;;;;;;5124550;28;20023;-73
2022/07/28 04:48:04;;;;;;;3.75;1.40;;;;;;;;;;5107004;28;20454;-73
2022/07/28 04:50:31;;;;;;;4.25;1.30;;;;;;;;;;5124554;28;20038;-73
2022/07/28 04:52:58;;;;;;;5.88;1.60;;;;;;;;;;5124255;28;20020;-73
2022/07/28 04:55:24;;;;;;;6.07;1.58;;;;;;;;;;5124946;28;20047;-73
2022/07/28 04:57:49;;;;;;;6.68;1.63;;;;;;;;;;5124627;28;20019;-73
2022/07/28 05:00:15;;;;;;;8.88;1.90;;;;;;;;;;5124884;28;20020;-73
2022/07/28 05:02:42;;;;;;;7.15;1.65;;;;;;;;;;5122494;28;20331;-73
2022/07/28 05:05:08;;;;;;;9.48;1.63;;;;;;;;;;5118451;28;20087;-73
2022/07/28 05:07:34;;;;;;;12.00;1.83;;;;;;;;;;5117755;28;20023;-73
2022/07/28 05:09:59;;;;;;;10.50;1.75;;;;;;;;;;5123886;28;20028;-75
2022/07/28 05:12:24;;;;;;;4.80;1.48;;;;;;;;;;5125220;28;20020;-73
2022/07/28 05:14:50;;;;;;;3.58;1.60;;;;;;;;;;5117707;28;20065;-73
2022/07/28 05:17:15;;;;;;;5.70;1.50;;;;;;;;;;5124523;28;20016;-73
2022/07/28 05:19:40;;;;;;;6.43;1.65;;;;;;;;;;5124407;28;20064;-73
2022/07/28 05:22:06;;;;;;;5.60;1.85;;;;;;;;;;5124494;28;20304;-73
2022/07/28 05:24:31;;;;;;;10.50;1.90;;;;;;;;;;5123725;28;20032;-73
2022/07/28 05:26:56;;;;;;;4.72;1.65;;;;;;;;;;5124387;28;20311;-74
2022/07/28 05:29:22;;;;;;;3.90;1.60;;;;;;;;;;5124208;28;20099;-73
2022/07/28 05:31:47;;;;;;;3.95;1.67;;;;;;;;;;5123877;28;20028;-74
2022/07/28 05:34:13;;;;;;;6.95;1.77;;;;;;;;;;5124339;28;20087;-74
2022/07/28 05:36:38;;;;;;;6.20;1.50;;;;;;;;;;5122710;28;20064;-73
2022/07/28 05:39:04;;;;;;;7.18;1.70;;;;;;;;;;5118455;28;20019;-74
2022/07/28 05:41:29;;;;;;;6.57;1.85;;;;;;;;;;5124549;28;20106;-73
2022/07/28 05:43:54;;;;;;;10.77;1.95;;;;;;;;;;5123683;28;20024;-73
2022/07/28 05:46:20;;;;;;;16.83;2.00;;;;;;;;;;5123706;28;20023;-73
2022/07/28 05:48:45;;;;;;;7.40;1.83;;;;;;;;;;5123604;28;20047;-73
2022/07/28 05:51:11;;;;;;;6.93;1.90;;;;;;;;;;5121776;28;20051;-73
2022/07/28 05:53:36;;;;;;;5.78;1.83;;;;;;;;;;5123151;28;20104;-73
2022/07/28 05:56:02;;;;;;;6.55;1.90;;;;;;;;;;5124083;28;20072;-73
2022/07/28 05:58:29;;;;;;;10.65;1.90;;;;;;;;;;5123803;28;20205;-73
2022/07/28 06:00:57;;;;;;;11.82;1.90;;;;;;;;;;5123179;28;20250;-73
2022/07/28 06:03:23;;;;;;;7.57;1.77;;;;;;;;;;5123632;28;20346;-73
2022/07/28 06:05:49;;;;;;;7.63;1.70;;;;;;;;;;5116846;28;20031;-73
2022/07/28 06:08:15;;;;;;;9.82;1.80;;;;;;;;;;5114834;28;20031;-73
2022/07/28 06:10:58;;;;;;;6.95;1.80;;;;;;;;;;5123409;28;20031;-73
2022/07/28 06:13:24;;;;;;;3.88;1.70;;;;;;;;;;5116940;28;20103;-73
2022/07/28 06:15:51;;;;;;;6.03;1.77;;;;;;;;;;5123164;28;20068;-74
2022/07/28 06:18:17;;;;;;;5.93;1.75;;;;;;;;;;5123388;28;20105;-74
2022/07/28 06:20:43;;;;;;;6.63;1.80;;;;;;;;;;5123441;28;20319;-73
2022/07/28 06:23:08;;;;;;;6.13;1.77;;;;;;;;;;5122453;28;20038;-73
2022/07/28 06:25:33;;;;;;;6.13;1.77;;;;;;;;;;5104650;28;20027;-73
2022/07/28 06:28:03;;;;;;;7.30;2.00;;;;;;;;;;5123503;28;20019;-73
2022/07/28 06:30:30;;;;;;;8.25;2.03;;;;;;;;;;5122921;28;20096;-73
2022/07/28 06:32:56;;;;;;;4.25;1.60;;;;;;;;;;5123177;28;20034;-75
2022/07/28 06:35:22;;;;;;;7.90;1.73;;;;;;;;;;5122764;28;20031;-74
2022/07/28 06:37:50;;;;;;;6.32;1.67;;;;;;;;;;5122302;28;20274;-73
2022/07/28 06:40:17;;;;;;;12.90;2.00;;;;;;;;;;5122940;28;20020;-73
2022/07/28 06:42:43;;;;;;;7.15;1.70;;;;;;;;;;5122972;28;20028;-73
2022/07/28 06:45:10;;;;;;;8.32;1.95;;;;;;;;;;5122594;28;20023;-73
2022/07/28 06:47:36;;;;;;;8.50;2.00;;;;;;;;;;5122913;28;20251;-72
2022/07/28 06:50:04;;;;;;;4.40;1.70;;;;;;;;;;5122530;28;20341;-73
2022/07/28 06:52:29;;;;;;;10.25;1.80;;;;;;;;;;5122256;28;20093;-73
2022/07/28 06:54:54;;;;;;;10.77;1.83;;;;;;;;;;5122404;28;20087;-73
2022/07/28 06:57:21;;;;;;;6.68;1.80;;;;;;;;;;5122706;28;20141;-73
2022/07/28 06:59:49;;;;;;;4.60;2.10;;;;;;;;;;5122049;28;20042;-73
2022/07/28 07:02:15;;;;;;;10.48;2.38;;;;;;;;;;5095080;28;20080;-73
2022/07/28 07:04:41;;;;;;;7.47;2.00;;;;;;;;;;5115918;28;20023;-73
2022/07/28 07:07:06;;;;;;;8.73;2.60;;;;;;;;;;5117239;28;20394;-74
2022/07/28 07:09:32;;;;;;;9.27;2.15;;;;;;;;;;5122010;28;20254;-73
2022/07/28 07:11:57;;;;;;;14.18;2.28;;;;;;;;;;5122368;28;20031;-74
2022/07/28 07:14:23;;;;;;;8.70;2.42;;;;;;;;;;5115515;28;20035;-73
2022/07/28 07:16:49;;;;;;;4.90;1.77;;;;;;;;;;5122330;28;20026;-73
2022/07/28 07:19:15;;;;;;;10.07;2.13;;;;;;;;;;5122195;28;20047;-72
2022/07/28 07:21:40;;;;;;;13.43;2.20;;;;;;;;;;5121853;28;20211;-73
2022/07/28 07:24:06;;;;;;;6.65;2.40;;;;;;;;;;5121512;28;20083;-73
2022/07/28 07:26:31;;;;;;;7.00;1.90;;;;;;;;;;5121972;28;20027;-73
2022/07/28 07:28:57;;;;;;;9.25;2.42;;;;;;;;;;5121740;28;20087;-73
2022/07/28 07:31:22;;;;;;;11.23;2.40;;;;;;;;;;5121920;28;20049;-73
2022/07/28 07:33:47;;;;;;;6.45;1.92;;;;;;;;;;5121951;28;20029;-73
2022/07/28 07:36:13;;;;;;;8.43;1.90;;;;;;;;;;5121666;28;20023;-76
2022/07/28 07:38:38;;;;;;;6.20;1.98;;;;;;;;;;5117132;28;20315;-73
2022/07/28 07:41:04;;;;;;;8.07;2.00;;;;;;;;;;5119644;28;20047;-73
2022/07/28 07:43:29;;;;;;;9.75;2.33;;;;;;;;;;5103114;28;20307;-73
2022/07/28 07:45:54;;;;;;;7.93;1.90;;;;;;;;;;5121764;28;20331;-74
2022/07/28 07:48:20;;;;;;;7.32;2.00;;;;;;;;;;5121344;28;20023;-73
2022/07/28 07:50:45;;;;;;;7.13;2.25;;;;;;;;;;5117889;28;20043;-73
2022/07/28 07:53:10;;;;;;;6.95;2.13;;;;;;;;;;5121482;28;20254;-73
2022/07/28 07:55:36;;;;;;;6.30;2.47;;;;;;;;;;5121400;28;20042;-73
2022/07/28 07:58:02;;;;;;;11.40;2.10;;;;;;;;;;5121211;28;20252;-73
2022/07/28 08:00:28;;;;;;;9.70;2.00;;;;;;;;;;5121310;28;20023;-73
2022/07/28 08:02:53;;;;;;;15.55;2.72;;;;;;;;;;5121356;28;20038;-73
2022/07/28 08:05:18;;;;;;;7.03;2.00;;;;;;;;;;5114763;28;20331;-75
2022/07/28 08:07:44;;;;;;;5.00;2.10;;;;;;;;;;5121357;28;20091;-72
2022/07/28 08:10:10;;;;;;;7.78;2.00;;;;;;;;;;5120977;28;20015;-75
2022/07/28 08:12:35;;;;;;;10.20;2.22;;;;;;;;;;5121410;28;20256;-73
2022/07/28 08:15:01;;;;;;;8.00;2.00;;;;;;;;;;5120999;28;20027;-73
2022/07/28 08:17:27;;;;;;;5.15;1.98;;;;;;;;;;5120375;28;20027;-73
2022/07/28 08:19:53;;;;;;;8.73;2.13;;;;;;;;;;5121354;28;20099;-73
2022/07/28 08:22:19;;;;;;;7.38;2.30;;;;;;;;;;5120980;28;20028;-73
2022/07/28 08:24:44;;;;;;;8.45;2.00;;;;;;;;;;5120817;28;20037;-73
2022/07/28 08:27:10;;;;;;;6.10;2.13;;;;;;;;;;5121308;28;20043;-74
2022/07/28 08:29:35;;;;;;;6.18;1.90;;;;;;;;;;5120656;28;20027;-73
2022/07/28 08:32:04;;;;;;;9.20;1.92;;;;;;;;;;5121275;28;20020;-74
2022/07/28 08:34:30;;;;;;;6.50;1.90;;;;;;;;;;5120993;28;20063;-73
2022/07/28 08:36:56;;;;;;;10.98;2.25;;;;;;;;;;5120874;28;20023;-73
2022/07/28 08:39:21;;;;;;;9.30;1.98;;;;;;;;;;5114316;28;20126;-73
2022/07/28 08:42:02;;;;;;;7.88;2.10;;;;;;;;;;5120954;28;20027;-73
2022/07/28 08:44:35;;;;;;;8.35;2.15;;;;;;;;;;5120822;28;20090;-73
2022/07/28 08:47:01;;;;;;;7.63;2.30;;;;;;;;;;5120997;28;20031;-73
2022/07/28 08:49:27;;;;;;;9.00;2.03;;;;;;;;;;5120945;28;20016;-73
2022/07/28 08:51:55;;;;;;;11.40;2.10;;;;;;;;;;5120284;28;20039;-73
2022/07/28 08:54:26;;;;;;;9.07;1.92;;;;;;;;;;5120726;28;20032;-73
2022/07/28 08:56:53;;;;;;;8.48;1.95;;;;;;;;;;5120951;28;20026;-73
2022/07/28 08:59:19;;;;;;;11.65;2.10;;;;;;;;;;5120652;28;20299;-74
2022/07/28 09:01:45;;;;;;;11.98;2.30;;;;;;;;;;5120902;28;20036;-74
2022/07/28 09:04:12;;;;;;;8.50;2.20;;;;;;;;;;5116550;28;20024;-73
2022/07/28 09:06:41;;;;;;;6.82;1.90;;;;;;;;;;5120676;28;20079;-73
2022/07/28 09:09:08;;;;;;;8.32;2.00;;;;;;;;;;5120510;28;20031;-73
2022/07/28 09:11:35;;;;;;;13.15;2.38;;;;;;;;;;5120343;28;20050;-73
2022/07/28 09:14:00;;;;;;;8.88;2.08;;;;;;;;;;5120357;28;20023;-73
2022/07/28 09:16:26;;;;;;;7.82;2.10;;;;;;;;;;5114403;28;20185;-73
2022/07/28 09:18:51;;;;;;;6.30;2.03;;;;;;;;;;5120609;28;20167;-73
2022/07/28 09:21:17;;;;;;;10.40;1.92;;;;;;;;;;5120426;28;20070;-73
2022/07/28 09:23:45;;;;;;;7.72;2.15;;;;;;;;;;5120532;28;20027;-73
2022/07/28 09:26:11;;;;;;;4.38;1.98;;;;;;;;;;5120433;28;20124;-73
2022/07/28 09:28:54;;;;;;;5.63;1.92;;;;;;;;;;5120950;28;20359;-73
2022/07/28 09:31:21;;;;;;;7.40;1.85;;;;;;;;;;5124386;28;20019;-73
2022/07/28 09:34:01;;;;;;;5.38;1.75;;;;;;;;;;5117647;28;20316;-73
2022/07/28 09:36:28;;;;;;;4.82;2.10;;;;;;;;;;5124151;28;20034;-73
2022/07/28 09:38:53;;;;;;;4.30;1.80;;;;;;;;;;5117650;28;20042;-73
2022/07/28 09:41:22;;;;;;;3.70;1.60;;;;;;;;;;5123688;28;20028;-73
2022/07/28 09:43:49;;;;;;;7.40;1.90;;;;;;;;;;5123721;28;20072;-72
2022/07/28 09:46:20;;;;;;;13.35;1.63;;;;;;;;;;5124119;28;20055;-71
2022/07/28 09:48:49;;;;;;;5.70;1.90;;;;;;;;;;5123841;28;20080;-74
2022/07/28 09:51:33;;;;;;;6.18;2.00;;;;;;;;;;5123557;28;20031;-73
2022/07/28 09:54:12;;;;;;;6.25;1.70;;;;;;;;;;5122178;28;20091;-74
2022/07/28 09:56:40;;;;;;;8.95;2.10;;;;;;;;;;5123501;28;20042;-72
2022/07/28 09:59:07;;;;;;;5.28;2.35;;;;;;;;;;5123541;28;20027;-73
2022/07/28 10:01:33;;;;;;;5.25;1.60;;;;;;;;;;5123674;28;20023;-73
2022/07/28 10:04:00;;;;;;;6.57;1.60;;;;;;;;;;5123087;28;20039;-73
2022/07/28 10:06:28;;;;;;;10.77;1.88;;;;;;;;;;5116957;28;20057;-73
2022/07/28 10:08:55;;;;;;;7.20;1.40;;;;;;;;;;5123428;28;20038;-73
2022/07/28 10:11:28;;;;;;;4.68;1.70;;;;;;;;;;5123015;28;20092;-73
2022/07/28 10:13:59;;;;;;;7.38;2.53;;;;;;;;;;5123325;28;20081;-73
2022/07/28 10:16:26;;;;;;;4.72;1.50;;;;;;;;;;5123295;28;20019;-73
2022/07/28 10:18:52;;;;;;;2.90;1.50;;;;;;;;;;5123031;28;20038;-73
2022/07/28 10:21:19;;;;;;;6.35;1.90;;;;;;;;;;5122189;28;20028;-73
2022/07/28 10:24:04;;;;;;;6.63;1.52;;;;;;;;;;5122846;28;20333;-73
2022/07/28 10:26:32;;;;;;;6.53;1.52;;;;;;;;;;5122892;28;20140;-73
2022/07/28 10:29:02;;;;;;;4.35;1.50;;;;;;;;;;5123059;28;20331;-73
2022/07/28 10:31:33;;;;;;;5.72;1.70;;;;;;;;;;5122964;28;20031;-73
2022/07/28 10:34:01;;;;;;;5.72;1.70;;;;;;;;;;5122807;28;20020;-73
2022/07/28 10:36:27;;;;;;;3.90;1.80;;;;;;;;;;5123081;28;20033;-73
2022/07/28 10:39:10;;;;;;;5.47;1.60;;;;;;;;;;5123296;28;20016;-73
2022/07/28 10:41:40;;;;;;;4.53;1.70;;;;;;;;;;5098284;28;20059;-73
2022/07/28 10:44:07;;;;;;;4.53;1.77;;;;;;;;;;5104363;28;20099;-73
2022/07/28 10:46:33;;;;;;;5.78;1.45;;;;;;;;;;5122659;28;20035;-74
2022/07/28 10:49:00;;;;;;;5.90;1.60;;;;;;;;;;5122229;28;20019;-74
2022/07/28 10:51:26;;;;;;;2.67;1.40;;;;;;;;;;5122363;28;20072;-73
2022/07/28 10:53:58;;;;;;;7.65;1.70;;;;;;;;;;5122204;28;20036;-73
2022/07/28 10:56:37;;;;;;;3.22;1.58;;;;;;;;;;5122048;28;20193;-73
2022/07/28 10:59:08;;;;;;;5.75;1.60;;;;;;;;;;5122192;28;20027;-73
2022/07/28 11:01:39;;;;;;;4.43;1.60;;;;;;;;;;5122423;28;20024;-73
2022/07/28 11:04:05;;;;;;;5.60;1.55;;;;;;;;;;5118465;28;20237;-73
2022/07/28 11:06:35;;;;;;;8.43;1.60;;;;;;;;;;5115509;28;20027;-73
2022/07/28 11:09:16;;;;;;;6.93;1.50;;;;;;;;;;5122063;28;20031;-73
2022/07/28 11:11:50;;;;;;;4.40;1.75;;;;;;;;;;5122150;28;20020;-73
2022/07/28 11:14:36;;;;;;;9.70;1.70;;;;;;;;;;5122308;28;20027;-73
2022/07/28 11:17:04;;;;;;;5.30;1.60;;;;;;;;;;5111097;28;20558;-72
2022/07/28 11:19:51;;;;;;;4.75;1.30;;;;;;;;;;5122036;28;20091;-72
2022/07/28 11:24:57;;;;;;;7.68;1.83;;;;;;;;;;5121526;28;20069;-72
2022/07/28 11:27:41;;;;;;;4.60;1.50;;;;;;;;;;5121752;28;20027;-72
2022/07/28 11:30:07;;;;;;;8.90;1.70;;;;;;;;;;5119841;28;20016;-73
2022/07/28 11:32:54;;;;;;;5.35;1.77;;;;;;;;;;5121773;28;20046;-73
2022/07/28 11:35:19;;;;;;;5.00;1.70;;;;;;;;;;5121585;28;20028;-72
2022/07/28 11:38:00;;;;;;;7.60;1.60;;;;;;;;;;5122017;28;20023;-74
2022/07/28 11:40:28;;;;;;;3.75;1.35;;;;;;;;;;5097957;28;20236;-72
2022/07/28 11:43:20;;;;;;;6.18;1.70;;;;;;;;;;5120775;28;20027;-72
2022/07/28 11:45:46;;;;;;;5.72;1.52;;;;;;;;;;5109946;28;20143;-72
2022/07/28 11:48:16;;;;;;;3.65;1.50;;;;;;;;;;5121407;28;20035;-72
2022/07/28 11:51:02;;;;;;;6.07;1.70;;;;;;;;;;5121425;28;20038;-73
2022/07/28 11:53:35;;;;;;;5.22;1.65;;;;;;;;;;5121376;28;20346;-72
2022/07/28 11:56:11;;;;;;;4.95;1.60;;;;;;;;;;5120877;28;20360;-72
2022/07/28 11:58:37;;;;;;;5.63;1.50;;;;;;;;;;5121348;28;20073;-72
2022/07/28 12:01:19;;;;;;;3.95;1.50;;;;;;;;;;5121611;28;20033;-72
2022/07/28 12:03:52;;;;;;;3.80;1.60;;;;;;;;;;5115850;28;20068;-72
2022/07/28 12:06:19;;;;;;;6.47;1.50;;;;;;;;;;5114516;28;20058;-73
2022/07/28 12:09:05;;;;;;;7.40;1.70;;;;;;;;;;5121153;28;20023;-72
2022/07/28 12:11:33;;;;;;;5.80;1.50;;;;;;;;;;5121110;28;20030;-72
2022/07/28 12:14:10;;;;;;;4.93;1.55;;;;;;;;;;5121014;28;20080;-73
2022/07/28 12:16:40;;;;;;;3.35;1.40;;;;;;;;;;5121101;28;20030;-73
2022/07/28 12:19:07;;;;;;;5.88;1.85;;;;;;;;;;5114214;28;20330;-72
2022/07/28 12:21:47;;;;;;;8.88;1.50;;;;;;;;;;5121615;28;20019;-73
2022/07/28 12:24:28;;;;;;;4.00;1.60;;;;;;;;;;5120386;28;20239;-72
2022/07/28 12:26:54;;;;;;;5.57;1.90;;;;;;;;;;5116237;28;20087;-73
2022/07/28 12:29:20;;;;;;;3.47;1.40;;;;;;;;;;5121702;28;20053;-74
2022/07/28 12:31:57;;;;;;;3.38;1.50;;;;;;;;;;5120848;28;20027;-72
2022/07/28 12:34:23;;;;;;;5.30;1.60;;;;;;;;;;5110379;28;20027;-73
2022/07/28 12:36:50;;;;;;;5.10;1.52;;;;;;;;;;5121143;28;20019;-73
2022/07/28 12:39:16;;;;;;;8.90;1.50;;;;;;;;;;5120521;28;20020;-73
2022/07/28 12:41:42;;;;;;;3.70;1.50;;;;;;;;;;5121055;28;20223;-73
2022/07/28 12:44:09;;;;;;;3.85;1.65;;;;;;;;;;5120923;28;20019;-73
2022/07/28 12:46:35;;;;;;;3.10;1.50;;;;;;;;;;5120725;28;20215;-72
2022/07/28 12:49:01;;;;;;;3.63;1.70;;;;;;;;;;5121121;28;20020;-73
2022/07/28 12:51:30;;;;;;;4.63;1.80;;;;;;;;;;5120947;28;20185;-72
2022/07/28 12:53:55;;;;;;;7.55;1.80;;;;;;;;;;5120366;28;20050;-73
2022/07/28 12:56:21;;;;;;;2.90;1.45;;;;;;;;;;5120927;28;20153;-73
2022/07/28 12:58:47;;;;;;;3.65;1.70;;;;;;;;;;5120756;28;20234;-72
2022/07/28 13:01:13;;;;;;;3.72;1.73;;;;;;;;;;5120852;28;20073;-72
2022/07/28 13:03:45;;;;;;;6.93;1.63;;;;;;;;;;5121640;28;20128;-72
2022/07/28 13:06:12;;;;;;;6.30;1.90;;;;;;;;;;5115392;28;20027;-72
2022/07/28 13:08:45;;;;;;;4.55;1.75;;;;;;;;;;5124748;28;20091;-74
2022/07/28 13:11:13;;;;;;;7.22;1.77;;;;;;;;;;5120998;28;20073;-73
2022/07/28 13:13:45;;;;;;;7.90;1.88;;;;;;;;;;5124655;28;20032;-72
2022/07/28 13:16:14;;;;;;;4.60;1.70;;;;;;;;;;5123274;28;20027;-72
2022/07/28 13:18:41;;;;;;;4.57;1.63;;;;;;;;;;5119951;28;20342;-72
2022/07/28 13:21:07;;;;;;;6.47;1.70;;;;;;;;;;5124905;28;20264;-73
2022/07/28 13:23:32;;;;;;;5.55;1.83;;;;;;;;;;5112211;28;20019;-73
2022/07/28 13:25:58;;;;;;;8.43;1.88;;;;;;;;;;5124420;28;20320;-73
2022/07/28 13:28:25;;;;;;;5.95;1.75;;;;;;;;;;5124496;28;20027;-73
2022/07/28 13:30:51;;;;;;;4.10;1.60;;;;;;;;;;5124228;28;20063;-72
2022/07/28 13:33:16;;;;;;;5.63;1.65;;;;;;;;;;5124715;28;20027;-73
2022/07/28 13:35:42;;;;;;;7.93;1.80;;;;;;;;;;5124418;28;20032;-72
2022/07/28 13:38:08;;;;;;;5.90;1.80;;;;;;;;;;5124221;28;20027;-72
2022/07/28 13:40:34;;;;;;;4.30;1.60;;;;;;;;;;5099517;28;20024;-72
2022/07/28 13:42:59;;;;;;;6.00;1.60;;;;;;;;;;5123772;28;20038;-72
2022/07/28 13:45:24;;;;;;;3.75;1.67;;;;;;;;;;5089153;28;20101;-73
2022/07/28 13:47:50;;;;;;;4.90;1.70;;;;;;;;;;5115801;28;20023;-72
2022/07/28 13:50:15;;;;;;;4.00;1.40;;;;;;;;;;5123821;28;20215;-73
2022/07/28 13:52:40;;;;;;;4.90;1.67;;;;;;;;;;5123792;28;20040;-72
2022/07/28 13:55:06;;;;;;;5.05;1.60;;;;;;;;;;5123521;28;20047;-72
2022/07/28 13:57:33;;;;;;;4.05;1.40;;;;;;;;;;5123762;28;20078;-72
2022/07/28 13:59:58;;;;;;;3.50;1.60;;;;;;;;;;5123926;28;20019;-72
2022/07/28 14:02:24;;;;;;;4.15;1.60;;;;;;;;;;5123720;28;20039;-72
2022/07/28 14:04:49;;;;;;;3.22;1.73;;;;;;;;;;5121148;28;20058;-72
2022/07/28 14:07:14;;;;;;;4.88;1.60;;;;;;;;;;5119883;28;20054;-73
2022/07/28 14:09:40;;;;;;;4.40;1.60;;;;;;;;;;5123086;28;20023;-72
2022/07/28 14:12:06;;;;;;;3.92;1.67;;;;;;;;;;5123922;28;20189;-72
2022/07/28 14:14:31;;;;;;;3.78;1.60;;;;;;;;;;5122725;28;20194;-73
2022/07/28 14:16:56;;;;;;;5.75;1.60;;;;;;;;;;5116156;28;20027;-72
2022/07/28 14:19:25;;;;;;;2.95;1.40;;;;;;;;;;5123513;28;20016;-72
2022/07/28 14:21:50;;;;;;;4.38;1.40;;;;;;;;;;5110704;28;20030;-72
2022/07/28 14:24:16;;;;;;;3.25;1.70;;;;;;;;;;5122672;28;20024;-72
2022/07/28 14:26:41;;;;;;;4.13;1.58;;;;;;;;;;5123612;28;20358;-72
2022/07/28 14:29:06;;;;;;;4.40;1.70;;;;;;;;;;5123433;28;20034;-72
2022/07/28 14:31:32;;;;;;;4.50;1.70;;;;;;;;;;5123045;28;20316;-72
2022/07/28 14:33:57;;;;;;;8.13;2.38;;;;;;;;;;5123217;28;20028;-72
2022/07/28 14:36:23;;;;;;;23.02;2.80;;;;;;;;;;5123258;28;20015;-72
2022/07/28 14:38:48;;;;;;;6.53;1.65;;;;;;;;;;5122292;28;20023;-72
2022/07/28 14:41:14;;;;;;;4.30;1.30;;;;;;;;;;5122858;28;20020;-72
2022/07/28 14:43:39;;;;;;;6.25;1.58;;;;;;;;;;5122721;28;20087;-72
2022/07/28 14:46:05;;;;;;;3.92;1.65;;;;;;;;;;5122776;28;20023;-73
2022/07/28 14:48:31;;;;;;;3.47;1.58;;;;;;;;;;5122716;28;20308;-73
2022/07/28 14:50:57;;;;;;;6.32;1.58;;;;;;;;;;5122557;28;20054;-73